sensor_id;sensor_type;location;lat;lon;timestamp;P1;durP1;ratioP1;P2;durP2;ratioP2
64367;SDS011;50692;53.314;-6.300;2023-04-06T00:02:12;4.00;;;1.70;;
64367;SDS011;50692;53.314;-6.300;2023-04-06T00:04:58;4.20;;;1.83;;
64367;SDS011;50692;53.314;-6.300;2023-04-06T00:07:44;4.70;;;1.47;;
64367;SDS011;50692;53.314;-6.300;2023-04-06T00:10:30;2.80;;;1.40;;
64367;SDS011;50692;53.314;-6.300;2023-04-06T00:13:16;4.07;;;1.67;;
64367;SDS011;50692;53.314;-6.300;2023-04-06T00:16:03;4.37;;;1.83;;
64367;SDS011;50692;53.314;-6.300;2023-04-06T00:18:51;4.40;;;1.40;;
64367;SDS011;50692;53.314;-6.300;2023-04-06T00:21:36;3.73;;;1.77;;
64367;SDS011;50692;53.314;-6.300;2023-04-06T00:24:22;4.70;;;1.93;;
64367;SDS011;50692;53.314;-6.300;2023-04-06T00:27:14;3.60;;;2.00;;
64367;SDS011;50692;53.314;-6.300;2023-04-06T00:30:00;4.10;;;1.67;;
64367;SDS011;50692;53.314;-6.300;2023-04-06T00:32:46;3.33;;;2.13;;
64367;SDS011;50692;53.314;-6.300;2023-04-06T00:35:34;5.80;;;2.10;;
64367;SDS011;50692;53.314;-6.300;2023-04-06T00:38:26;6.10;;;1.73;;
64367;SDS011;50692;53.314;-6.300;2023-04-06T00:41:12;4.47;;;1.90;;
64367;SDS011;50692;53.314;-6.300;2023-04-06T00:43:58;3.37;;;1.60;;
64367;SDS011;50692;53.314;-6.300;2023-04-06T00:46:45;3.70;;;1.50;;
64367;SDS011;50692;53.314;-6.300;2023-04-06T00:49:40;6.27;;;1.77;;
64367;SDS011;50692;53.314;-6.300;2023-04-06T00:52:27;3.77;;;1.80;;
64367;SDS011;50692;53.314;-6.300;2023-04-06T00:55:14;4.20;;;1.83;;
64367;SDS011;50692;53.314;-6.300;2023-04-06T00:58:02;6.73;;;2.30;;
64367;SDS011;50692;53.314;-6.300;2023-04-06T01:00:54;6.57;;;2.30;;
64367;SDS011;50692;53.314;-6.300;2023-04-06T01:03:41;5.87;;;2.10;;
64367;SDS011;50692;53.314;-6.300;2023-04-06T01:06:35;5.03;;;1.90;;
64367;SDS011;50692;53.314;-6.300;2023-04-06T01:09:22;3.83;;;1.77;;
64367;SDS011;50692;53.314;-6.300;2023-04-06T01:12:08;4.33;;;2.00;;
64367;SDS011;50692;53.314;-6.300;2023-04-06T01:14:54;5.17;;;2.23;;
64367;SDS011;50692;53.314;-6.300;2023-04-06T01:17:41;5.23;;;1.80;;
64367;SDS011;50692;53.314;-6.300;2023-04-06T01:20:27;4.67;;;1.93;;
64367;SDS011;50692;53.314;-6.300;2023-04-06T01:23:13;5.07;;;1.87;;
64367;SDS011;50692;53.314;-6.300;2023-04-06T01:25:58;3.67;;;1.83;;
64367;SDS011;50692;53.314;-6.300;2023-04-06T01:28:44;4.60;;;1.87;;
64367;SDS011;50692;53.314;-6.300;2023-04-06T01:31:30;3.90;;;2.00;;
64367;SDS011;50692;53.314;-6.300;2023-04-06T01:34:16;5.83;;;2.23;;
64367;SDS011;50692;53.314;-6.300;2023-04-06T01:37:02;4.70;;;1.93;;
64367;SDS011;50692;53.314;-6.300;2023-04-06T01:39:47;8.80;;;2.27;;
64367;SDS011;50692;53.314;-6.300;2023-04-06T01:42:33;4.37;;;2.20;;
64367;SDS011;50692;53.314;-6.300;2023-04-06T01:45:19;3.73;;;2.40;;
64367;SDS011;50692;53.314;-6.300;2023-04-06T01:48:05;4.57;;;2.00;;
64367;SDS011;50692;53.314;-6.300;2023-04-06T01:50:53;9.73;;;2.47;;
64367;SDS011;50692;53.314;-6.300;2023-04-06T01:53:39;3.17;;;1.97;;
64367;SDS011;50692;53.314;-6.300;2023-04-06T01:56:25;6.90;;;2.27;;
64367;SDS011;50692;53.314;-6.300;2023-04-06T01:59:11;7.50;;;2.47;;
64367;SDS011;50692;53.314;-6.300;2023-04-06T02:01:57;4.23;;;2.20;;
64367;SDS011;50692;53.314;-6.300;2023-04-06T02:04:43;5.50;;;2.27;;
64367;SDS011;50692;53.314;-6.300;2023-04-06T02:07:29;3.90;;;2.07;;
64367;SDS011;50692;53.314;-6.300;2023-04-06T02:10:15;5.10;;;2.60;;
64367;SDS011;50692;53.314;-6.300;2023-04-06T02:13:01;5.47;;;2.27;;
64367;SDS011;50692;53.314;-6.300;2023-04-06T02:15:46;3.70;;;2.20;;
64367;SDS011;50692;53.314;-6.300;2023-04-06T02:18:32;6.07;;;2.30;;
64367;SDS011;50692;53.314;-6.300;2023-04-06T02:21:18;5.97;;;2.70;;
64367;SDS011;50692;53.314;-6.300;2023-04-06T02:24:05;5.30;;;2.20;;
64367;SDS011;50692;53.314;-6.300;2023-04-06T02:26:51;5.20;;;2.17;;
64367;SDS011;50692;53.314;-6.300;2023-04-06T02:29:37;4.47;;;2.27;;
64367;SDS011;50692;53.314;-6.300;2023-04-06T02:32:24;7.13;;;2.33;;
64367;SDS011;50692;53.314;-6.300;2023-04-06T02:35:10;7.70;;;2.70;;
64367;SDS011;50692;53.314;-6.300;2023-04-06T02:37:56;6.23;;;2.20;;
64367;SDS011;50692;53.314;-6.300;2023-04-06T02:40:43;6.23;;;2.30;;
64367;SDS011;50692;53.314;-6.300;2023-04-06T02:43:28;6.70;;;2.83;;
64367;SDS011;50692;53.314;-6.300;2023-04-06T02:46:14;6.20;;;2.20;;
64367;SDS011;50692;53.314;-6.300;2023-04-06T02:49:00;5.77;;;2.60;;
64367;SDS011;50692;53.314;-6.300;2023-04-06T02:51:46;5.23;;;2.63;;
64367;SDS011;50692;53.314;-6.300;2023-04-06T02:54:32;4.83;;;2.50;;
64367;SDS011;50692;53.314;-6.300;2023-04-06T02:57:19;6.63;;;2.40;;
64367;SDS011;50692;53.314;-6.300;2023-04-06T03:00:05;5.60;;;2.73;;
64367;SDS011;50692;53.314;-6.300;2023-04-06T03:02:52;6.03;;;2.50;;
64367;SDS011;50692;53.314;-6.300;2023-04-06T03:05:37;4.90;;;2.67;;
64367;SDS011;50692;53.314;-6.300;2023-04-06T03:08:23;5.13;;;2.70;;
64367;SDS011;50692;53.314;-6.300;2023-04-06T03:11:10;6.87;;;2.60;;
64367;SDS011;50692;53.314;-6.300;2023-04-06T03:13:55;4.47;;;2.63;;
64367;SDS011;50692;53.314;-6.300;2023-04-06T03:16:41;5.67;;;2.43;;
64367;SDS011;50692;53.314;-6.300;2023-04-06T03:19:27;10.10;;;3.00;;
64367;SDS011;50692;53.314;-6.300;2023-04-06T03:22:13;6.73;;;3.00;;
64367;SDS011;50692;53.314;-6.300;2023-04-06T03:24:59;5.63;;;2.13;;
64367;SDS011;50692;53.314;-6.300;2023-04-06T03:27:45;5.30;;;3.00;;
64367;SDS011;50692;53.314;-6.300;2023-04-06T03:30:30;6.63;;;2.80;;
64367;SDS011;50692;53.314;-6.300;2023-04-06T03:33:16;6.00;;;2.53;;
64367;SDS011;50692;53.314;-6.300;2023-04-06T03:36:02;5.30;;;2.27;;
64367;SDS011;50692;53.314;-6.300;2023-04-06T03:38:48;4.30;;;2.33;;
64367;SDS011;50692;53.314;-6.300;2023-04-06T03:41:34;6.43;;;2.13;;
64367;SDS011;50692;53.314;-6.300;2023-04-06T03:44:20;6.27;;;2.20;;
64367;SDS011;50692;53.314;-6.300;2023-04-06T03:47:06;5.30;;;2.27;;
64367;SDS011;50692;53.314;-6.300;2023-04-06T03:49:52;8.40;;;2.60;;
64367;SDS011;50692;53.314;-6.300;2023-04-06T03:52:37;4.80;;;2.20;;
64367;SDS011;50692;53.314;-6.300;2023-04-06T03:55:23;6.50;;;2.17;;
64367;SDS011;50692;53.314;-6.300;2023-04-06T03:58:09;5.93;;;2.13;;
64367;SDS011;50692;53.314;-6.300;2023-04-06T04:00:55;4.43;;;2.50;;
64367;SDS011;50692;53.314;-6.300;2023-04-06T04:03:41;9.13;;;2.97;;
64367;SDS011;50692;53.314;-6.300;2023-04-06T04:06:27;5.40;;;2.20;;
64367;SDS011;50692;53.314;-6.300;2023-04-06T04:09:13;7.17;;;2.43;;
64367;SDS011;50692;53.314;-6.300;2023-04-06T04:11:58;5.37;;;2.07;;
64367;SDS011;50692;53.314;-6.300;2023-04-06T04:14:45;6.13;;;2.30;;
64367;SDS011;50692;53.314;-6.300;2023-04-06T04:17:30;3.93;;;2.20;;
64367;SDS011;50692;53.314;-6.300;2023-04-06T04:20:16;5.63;;;2.43;;
64367;SDS011;50692;53.314;-6.300;2023-04-06T04:23:02;3.67;;;2.30;;
64367;SDS011;50692;53.314;-6.300;2023-04-06T04:25:48;4.93;;;2.00;;
64367;SDS011;50692;53.314;-6.300;2023-04-06T04:28:34;4.63;;;2.30;;
64367;SDS011;50692;53.314;-6.300;2023-04-06T04:31:20;6.87;;;2.30;;
64367;SDS011;50692;53.314;-6.300;2023-04-06T04:34:07;4.27;;;1.70;;
64367;SDS011;50692;53.314;-6.300;2023-04-06T04:36:53;9.07;;;2.00;;
64367;SDS011;50692;53.314;-6.300;2023-04-06T04:39:39;5.43;;;1.83;;
64367;SDS011;50692;53.314;-6.300;2023-04-06T04:42:25;8.57;;;2.27;;
64367;SDS011;50692;53.314;-6.300;2023-04-06T04:45:10;5.83;;;2.27;;
64367;SDS011;50692;53.314;-6.300;2023-04-06T04:47:56;4.50;;;1.60;;
64367;SDS011;50692;53.314;-6.300;2023-04-06T04:50:42;5.40;;;2.10;;
64367;SDS011;50692;53.314;-6.300;2023-04-06T04:53:28;6.17;;;1.80;;
64367;SDS011;50692;53.314;-6.300;2023-04-06T04:56:14;5.13;;;1.80;;
64367;SDS011;50692;53.314;-6.300;2023-04-06T04:59:00;6.20;;;2.10;;
64367;SDS011;50692;53.314;-6.300;2023-04-06T05:01:45;4.87;;;1.97;;
64367;SDS011;50692;53.314;-6.300;2023-04-06T05:04:31;5.13;;;2.50;;
64367;SDS011;50692;53.314;-6.300;2023-04-06T05:07:17;8.00;;;3.13;;
64367;SDS011;50692;53.314;-6.300;2023-04-06T05:10:04;6.03;;;3.00;;
64367;SDS011;50692;53.314;-6.300;2023-04-06T05:12:50;8.10;;;2.97;;
64367;SDS011;50692;53.314;-6.300;2023-04-06T05:15:36;8.93;;;3.30;;
64367;SDS011;50692;53.314;-6.300;2023-04-06T05:18:25;8.43;;;2.95;;
64367;SDS011;50692;53.314;-6.300;2023-04-06T05:21:11;5.97;;;2.40;;
64367;SDS011;50692;53.314;-6.300;2023-04-06T05:23:58;5.53;;;2.20;;
64367;SDS011;50692;53.314;-6.300;2023-04-06T05:26:44;4.17;;;2.00;;
64367;SDS011;50692;53.314;-6.300;2023-04-06T05:29:30;6.43;;;2.10;;
64367;SDS011;50692;53.314;-6.300;2023-04-06T05:32:15;11.03;;;2.37;;
64367;SDS011;50692;53.314;-6.300;2023-04-06T05:35:01;3.87;;;2.00;;
64367;SDS011;50692;53.314;-6.300;2023-04-06T05:37:47;7.20;;;2.10;;
64367;SDS011;50692;53.314;-6.300;2023-04-06T05:40:33;5.23;;;2.20;;
64367;SDS011;50692;53.314;-6.300;2023-04-06T05:43:20;5.93;;;2.30;;
64367;SDS011;50692;53.314;-6.300;2023-04-06T05:46:05;6.23;;;2.47;;
64367;SDS011;50692;53.314;-6.300;2023-04-06T05:48:51;5.57;;;2.23;;
64367;SDS011;50692;53.314;-6.300;2023-04-06T05:51:37;5.73;;;2.20;;
64367;SDS011;50692;53.314;-6.300;2023-04-06T05:54:23;11.37;;;2.47;;
64367;SDS011;50692;53.314;-6.300;2023-04-06T05:57:09;6.80;;;2.37;;
64367;SDS011;50692;53.314;-6.300;2023-04-06T05:59:54;6.17;;;2.23;;
64367;SDS011;50692;53.314;-6.300;2023-04-06T06:02:40;7.07;;;2.53;;
64367;SDS011;50692;53.314;-6.300;2023-04-06T06:05:28;4.93;;;3.07;;
64367;SDS011;50692;53.314;-6.300;2023-04-06T06:08:14;5.20;;;3.10;;
64367;SDS011;50692;53.314;-6.300;2023-04-06T06:11:00;7.83;;;2.53;;
64367;SDS011;50692;53.314;-6.300;2023-04-06T06:13:47;6.83;;;2.87;;
64367;SDS011;50692;53.314;-6.300;2023-04-06T06:16:33;5.70;;;2.57;;
64367;SDS011;50692;53.314;-6.300;2023-04-06T06:19:19;4.90;;;2.33;;
64367;SDS011;50692;53.314;-6.300;2023-04-06T06:22:05;5.10;;;2.40;;
64367;SDS011;50692;53.314;-6.300;2023-04-06T06:24:51;7.23;;;2.67;;
64367;SDS011;50692;53.314;-6.300;2023-04-06T06:27:37;7.43;;;2.60;;
64367;SDS011;50692;53.314;-6.300;2023-04-06T06:30:23;5.13;;;2.67;;
64367;SDS011;50692;53.314;-6.300;2023-04-06T06:33:08;5.33;;;2.47;;
64367;SDS011;50692;53.314;-6.300;2023-04-06T06:35:54;5.97;;;2.50;;
64367;SDS011;50692;53.314;-6.300;2023-04-06T06:38:40;6.73;;;2.83;;
64367;SDS011;50692;53.314;-6.300;2023-04-06T06:41:26;8.83;;;3.00;;
64367;SDS011;50692;53.314;-6.300;2023-04-06T06:44:12;6.70;;;2.70;;
64367;SDS011;50692;53.314;-6.300;2023-04-06T06:46:58;4.17;;;2.83;;
64367;SDS011;50692;53.314;-6.300;2023-04-06T06:49:43;3.47;;;2.30;;
64367;SDS011;50692;53.314;-6.300;2023-04-06T06:52:31;6.77;;;2.40;;
64367;SDS011;50692;53.314;-6.300;2023-04-06T06:55:16;4.67;;;2.40;;
64367;SDS011;50692;53.314;-6.300;2023-04-06T06:58:04;6.03;;;2.30;;
64367;SDS011;50692;53.314;-6.300;2023-04-06T07:00:55;8.70;;;3.23;;
64367;SDS011;50692;53.314;-6.300;2023-04-06T07:03:41;7.33;;;2.77;;
64367;SDS011;50692;53.314;-6.300;2023-04-06T07:06:27;5.93;;;2.87;;
64367;SDS011;50692;53.314;-6.300;2023-04-06T07:09:13;5.90;;;2.40;;
64367;SDS011;50692;53.314;-6.300;2023-04-06T07:11:59;3.50;;;2.17;;
64367;SDS011;50692;53.314;-6.300;2023-04-06T07:14:46;4.93;;;2.00;;
64367;SDS011;50692;53.314;-6.300;2023-04-06T07:17:32;3.80;;;2.00;;
64367;SDS011;50692;53.314;-6.300;2023-04-06T07:20:17;3.33;;;1.60;;
64367;SDS011;50692;53.314;-6.300;2023-04-06T07:23:03;2.90;;;1.70;;
64367;SDS011;50692;53.314;-6.300;2023-04-06T07:25:49;4.17;;;1.87;;
64367;SDS011;50692;53.314;-6.300;2023-04-06T07:28:37;3.43;;;1.90;;
64367;SDS011;50692;53.314;-6.300;2023-04-06T07:31:23;5.10;;;1.90;;
64367;SDS011;50692;53.314;-6.300;2023-04-06T07:34:09;4.77;;;1.87;;
64367;SDS011;50692;53.314;-6.300;2023-04-06T07:36:55;4.30;;;1.73;;
64367;SDS011;50692;53.314;-6.300;2023-04-06T07:39:42;3.43;;;1.70;;
64367;SDS011;50692;53.314;-6.300;2023-04-06T07:42:27;4.37;;;1.70;;
64367;SDS011;50692;53.314;-6.300;2023-04-06T07:45:13;3.83;;;1.80;;
64367;SDS011;50692;53.314;-6.300;2023-04-06T07:48:00;3.63;;;1.50;;
64367;SDS011;50692;53.314;-6.300;2023-04-06T07:50:46;2.77;;;1.57;;
64367;SDS011;50692;53.314;-6.300;2023-04-06T07:53:32;2.90;;;1.70;;
64367;SDS011;50692;53.314;-6.300;2023-04-06T07:56:18;3.30;;;1.90;;
64367;SDS011;50692;53.314;-6.300;2023-04-06T07:59:03;4.07;;;2.07;;
64367;SDS011;50692;53.314;-6.300;2023-04-06T08:01:49;2.80;;;1.70;;
64367;SDS011;50692;53.314;-6.300;2023-04-06T08:04:35;3.67;;;1.77;;
64367;SDS011;50692;53.314;-6.300;2023-04-06T08:07:21;6.27;;;1.90;;
64367;SDS011;50692;53.314;-6.300;2023-04-06T08:10:07;3.87;;;1.90;;
64367;SDS011;50692;53.314;-6.300;2023-04-06T08:12:53;2.73;;;1.60;;
64367;SDS011;50692;53.314;-6.300;2023-04-06T08:15:39;4.47;;;1.70;;
64367;SDS011;50692;53.314;-6.300;2023-04-06T08:18:25;4.63;;;1.70;;
64367;SDS011;50692;53.314;-6.300;2023-04-06T08:21:11;2.47;;;1.40;;
64367;SDS011;50692;53.314;-6.300;2023-04-06T08:23:57;4.00;;;1.67;;
64367;SDS011;50692;53.314;-6.300;2023-04-06T08:26:42;2.70;;;1.60;;
64367;SDS011;50692;53.314;-6.300;2023-04-06T08:29:28;3.83;;;2.00;;
64367;SDS011;50692;53.314;-6.300;2023-04-06T08:32:14;3.70;;;1.67;;
64367;SDS011;50692;53.314;-6.300;2023-04-06T08:35:00;5.10;;;1.77;;
64367;SDS011;50692;53.314;-6.300;2023-04-06T08:37:46;6.10;;;1.97;;
64367;SDS011;50692;53.314;-6.300;2023-04-06T08:40:38;3.33;;;2.10;;
64367;SDS011;50692;53.314;-6.300;2023-04-06T08:43:24;3.83;;;2.17;;
64367;SDS011;50692;53.314;-6.300;2023-04-06T08:46:12;4.37;;;2.37;;
64367;SDS011;50692;53.314;-6.300;2023-04-06T08:49:00;2.93;;;1.80;;
64367;SDS011;50692;53.314;-6.300;2023-04-06T08:51:47;4.37;;;1.67;;
64367;SDS011;50692;53.314;-6.300;2023-04-06T08:54:32;5.27;;;1.83;;
64367;SDS011;50692;53.314;-6.300;2023-04-06T08:57:19;2.23;;;1.50;;
64367;SDS011;50692;53.314;-6.300;2023-04-06T09:00:07;6.70;;;1.80;;
64367;SDS011;50692;53.314;-6.300;2023-04-06T09:02:54;5.18;;;1.73;;
64367;SDS011;50692;53.314;-6.300;2023-04-06T09:05:43;3.23;;;1.23;;
64367;SDS011;50692;53.314;-6.300;2023-04-06T09:08:30;3.23;;;1.40;;
64367;SDS011;50692;53.314;-6.300;2023-04-06T09:11:17;4.97;;;1.70;;
64367;SDS011;50692;53.314;-6.300;2023-04-06T09:14:02;3.20;;;1.40;;
64367;SDS011;50692;53.314;-6.300;2023-04-06T09:16:48;5.00;;;1.60;;
64367;SDS011;50692;53.314;-6.300;2023-04-06T09:19:44;5.47;;;1.40;;
64367;SDS011;50692;53.314;-6.300;2023-04-06T09:22:40;5.90;;;1.70;;
64367;SDS011;50692;53.314;-6.300;2023-04-06T09:25:27;2.70;;;1.50;;
64367;SDS011;50692;53.314;-6.300;2023-04-06T09:28:13;5.30;;;1.70;;
64367;SDS011;50692;53.314;-6.300;2023-04-06T09:30:59;2.90;;;1.50;;
64367;SDS011;50692;53.314;-6.300;2023-04-06T09:33:45;5.00;;;1.50;;
64367;SDS011;50692;53.314;-6.300;2023-04-06T09:36:32;3.17;;;1.40;;
64367;SDS011;50692;53.314;-6.300;2023-04-06T09:39:20;3.93;;;1.63;;
64367;SDS011;50692;53.314;-6.300;2023-04-06T09:42:08;3.70;;;1.67;;
64367;SDS011;50692;53.314;-6.300;2023-04-06T09:44:54;3.13;;;1.50;;
64367;SDS011;50692;53.314;-6.300;2023-04-06T09:47:42;3.20;;;1.73;;
64367;SDS011;50692;53.314;-6.300;2023-04-06T09:50:29;4.82;;;1.25;;
64367;SDS011;50692;53.314;-6.300;2023-04-06T09:53:19;3.50;;;1.57;;
64367;SDS011;50692;53.314;-6.300;2023-04-06T09:56:06;4.28;;;1.20;;
64367;SDS011;50692;53.314;-6.300;2023-04-06T09:58:56;2.83;;;1.40;;
64367;SDS011;50692;53.314;-6.300;2023-04-06T10:01:48;3.78;;;1.30;;
64367;SDS011;50692;53.314;-6.300;2023-04-06T10:04:39;2.77;;;1.63;;
64367;SDS011;50692;53.314;-6.300;2023-04-06T10:07:29;1.88;;;1.00;;
64367;SDS011;50692;53.314;-6.300;2023-04-06T10:10:16;5.00;;;2.00;;
64367;SDS011;50692;53.314;-6.300;2023-04-06T10:13:03;2.90;;;1.40;;
64367;SDS011;50692;53.314;-6.300;2023-04-06T10:15:50;4.38;;;1.60;;
64367;SDS011;50692;53.314;-6.300;2023-04-06T10:18:37;2.00;;;1.17;;
64367;SDS011;50692;53.314;-6.300;2023-04-06T10:21:28;2.30;;;1.25;;
64367;SDS011;50692;53.314;-6.300;2023-04-06T10:24:16;4.32;;;1.48;;
64367;SDS011;50692;53.314;-6.300;2023-04-06T10:27:03;2.05;;;1.33;;
64367;SDS011;50692;53.314;-6.300;2023-04-06T10:29:51;4.65;;;1.40;;
64367;SDS011;50692;53.314;-6.300;2023-04-06T10:32:38;3.45;;;1.45;;
64367;SDS011;50692;53.314;-6.300;2023-04-06T10:35:24;3.45;;;1.25;;
64367;SDS011;50692;53.314;-6.300;2023-04-06T10:38:35;4.55;;;1.13;;
64367;SDS011;50692;53.314;-6.300;2023-04-06T10:41:22;4.53;;;1.10;;
64367;SDS011;50692;53.314;-6.300;2023-04-06T10:44:16;2.50;;;1.17;;
64367;SDS011;50692;53.314;-6.300;2023-04-06T10:47:05;3.83;;;1.38;;
64367;SDS011;50692;53.314;-6.300;2023-04-06T10:50:02;2.22;;;1.23;;
64367;SDS011;50692;53.314;-6.300;2023-04-06T10:53:09;3.10;;;1.10;;
64367;SDS011;50692;53.314;-6.300;2023-04-06T10:55:55;5.20;;;1.20;;
64367;SDS011;50692;53.314;-6.300;2023-04-06T10:58:48;3.22;;;1.20;;
64367;SDS011;50692;53.314;-6.300;2023-04-06T11:01:35;2.88;;;0.90;;
64367;SDS011;50692;53.314;-6.300;2023-04-06T11:04:21;3.35;;;0.90;;
64367;SDS011;50692;53.314;-6.300;2023-04-06T11:07:08;2.60;;;0.93;;
64367;SDS011;50692;53.314;-6.300;2023-04-06T11:09:55;4.25;;;1.15;;
64367;SDS011;50692;53.314;-6.300;2023-04-06T11:12:42;3.53;;;1.02;;
64367;SDS011;50692;53.314;-6.300;2023-04-06T11:15:33;2.50;;;0.80;;
64367;SDS011;50692;53.314;-6.300;2023-04-06T11:18:19;3.00;;;1.10;;
64367;SDS011;50692;53.314;-6.300;2023-04-06T11:21:05;2.70;;;1.00;;
64367;SDS011;50692;53.314;-6.300;2023-04-06T11:23:51;4.05;;;1.25;;
64367;SDS011;50692;53.314;-6.300;2023-04-06T11:29:33;3.05;;;0.98;;
64367;SDS011;50692;53.314;-6.300;2023-04-06T11:32:22;3.92;;;1.30;;
64367;SDS011;50692;53.314;-6.300;2023-04-06T11:35:19;2.25;;;1.10;;
64367;SDS011;50692;53.314;-6.300;2023-04-06T11:38:06;4.40;;;1.10;;
64367;SDS011;50692;53.314;-6.300;2023-04-06T11:40:53;2.33;;;1.00;;
64367;SDS011;50692;53.314;-6.300;2023-04-06T11:43:45;1.73;;;0.95;;
64367;SDS011;50692;53.314;-6.300;2023-04-06T11:46:33;2.22;;;1.23;;
64367;SDS011;50692;53.314;-6.300;2023-04-06T11:49:19;2.58;;;1.00;;
64367;SDS011;50692;53.314;-6.300;2023-04-06T11:52:14;3.67;;;0.80;;
64367;SDS011;50692;53.314;-6.300;2023-04-06T11:58:00;2.63;;;1.38;;
64367;SDS011;50692;53.314;-6.300;2023-04-06T12:00:46;2.80;;;1.10;;
64367;SDS011;50692;53.314;-6.300;2023-04-06T12:03:32;1.63;;;1.10;;
64367;SDS011;50692;53.314;-6.300;2023-04-06T12:06:18;1.67;;;1.02;;
64367;SDS011;50692;53.314;-6.300;2023-04-06T12:09:05;2.60;;;1.08;;
64367;SDS011;50692;53.314;-6.300;2023-04-06T12:11:51;1.48;;;1.00;;
64367;SDS011;50692;53.314;-6.300;2023-04-06T12:14:37;2.78;;;1.20;;
64367;SDS011;50692;53.314;-6.300;2023-04-06T12:17:23;1.88;;;0.70;;
64367;SDS011;50692;53.314;-6.300;2023-04-06T12:20:09;1.60;;;0.82;;
64367;SDS011;50692;53.314;-6.300;2023-04-06T12:22:55;1.73;;;0.90;;
64367;SDS011;50692;53.314;-6.300;2023-04-06T12:25:41;1.85;;;1.00;;
64367;SDS011;50692;53.314;-6.300;2023-04-06T12:28:28;4.03;;;1.15;;
64367;SDS011;50692;53.314;-6.300;2023-04-06T12:31:14;1.63;;;1.15;;
64367;SDS011;50692;53.314;-6.300;2023-04-06T12:34:02;2.65;;;1.27;;
64367;SDS011;50692;53.314;-6.300;2023-04-06T12:36:48;2.92;;;1.40;;
64367;SDS011;50692;53.314;-6.300;2023-04-06T12:39:34;2.85;;;1.20;;
64367;SDS011;50692;53.314;-6.300;2023-04-06T12:42:20;2.10;;;1.15;;
64367;SDS011;50692;53.314;-6.300;2023-04-06T12:45:06;4.18;;;1.20;;
64367;SDS011;50692;53.314;-6.300;2023-04-06T12:47:53;2.08;;;1.30;;
64367;SDS011;50692;53.314;-6.300;2023-04-06T12:50:38;2.10;;;1.10;;
64367;SDS011;50692;53.314;-6.300;2023-04-06T12:53:24;1.58;;;1.10;;
64367;SDS011;50692;53.314;-6.300;2023-04-06T12:56:14;2.40;;;1.10;;
64367;SDS011;50692;53.314;-6.300;2023-04-06T12:59:02;2.08;;;1.00;;
64367;SDS011;50692;53.314;-6.300;2023-04-06T13:01:48;1.90;;;1.10;;
64367;SDS011;50692;53.314;-6.300;2023-04-06T13:04:33;1.25;;;0.90;;
64367;SDS011;50692;53.314;-6.300;2023-04-06T13:07:19;1.48;;;0.90;;
64367;SDS011;50692;53.314;-6.300;2023-04-06T13:10:05;2.50;;;0.95;;
64367;SDS011;50692;53.314;-6.300;2023-04-06T13:12:52;2.05;;;0.90;;
64367;SDS011;50692;53.314;-6.300;2023-04-06T13:15:37;1.63;;;0.90;;
64367;SDS011;50692;53.314;-6.300;2023-04-06T13:18:23;1.63;;;0.68;;
64367;SDS011;50692;53.314;-6.300;2023-04-06T13:21:12;2.00;;;1.10;;
64367;SDS011;50692;53.314;-6.300;2023-04-06T13:24:00;1.88;;;0.60;;
64367;SDS011;50692;53.314;-6.300;2023-04-06T13:26:46;1.27;;;0.77;;
64367;SDS011;50692;53.314;-6.300;2023-04-06T13:29:32;1.10;;;0.70;;
64367;SDS011;50692;53.314;-6.300;2023-04-06T13:32:20;2.30;;;0.80;;
64367;SDS011;50692;53.314;-6.300;2023-04-06T13:35:06;2.05;;;0.80;;
64367;SDS011;50692;53.314;-6.300;2023-04-06T13:37:52;4.28;;;1.00;;
64367;SDS011;50692;53.314;-6.300;2023-04-06T13:40:38;3.15;;;0.98;;
64367;SDS011;50692;53.314;-6.300;2023-04-06T13:43:25;1.13;;;0.82;;
64367;SDS011;50692;53.314;-6.300;2023-04-06T13:46:12;2.13;;;0.57;;
64367;SDS011;50692;53.314;-6.300;2023-04-06T13:48:58;1.40;;;0.73;;
64367;SDS011;50692;53.314;-6.300;2023-04-06T13:51:43;2.08;;;1.02;;
64367;SDS011;50692;53.314;-6.300;2023-04-06T13:54:29;2.03;;;1.00;;
64367;SDS011;50692;53.314;-6.300;2023-04-06T13:57:15;2.08;;;1.40;;
64367;SDS011;50692;53.314;-6.300;2023-04-06T14:00:01;1.73;;;0.70;;
64367;SDS011;50692;53.314;-6.300;2023-04-06T14:02:47;2.35;;;0.80;;
64367;SDS011;50692;53.314;-6.300;2023-04-06T14:05:33;1.45;;;0.90;;
64367;SDS011;50692;53.314;-6.300;2023-04-06T14:08:19;1.50;;;0.60;;
64367;SDS011;50692;53.314;-6.300;2023-04-06T14:11:06;1.27;;;0.60;;
64367;SDS011;50692;53.314;-6.300;2023-04-06T14:13:53;2.00;;;0.75;;
64367;SDS011;50692;53.314;-6.300;2023-04-06T14:16:39;3.53;;;1.00;;
64367;SDS011;50692;53.314;-6.300;2023-04-06T14:19:29;1.15;;;0.70;;
64367;SDS011;50692;53.314;-6.300;2023-04-06T14:22:15;0.50;;;0.50;;
64367;SDS011;50692;53.314;-6.300;2023-04-06T14:25:01;1.45;;;0.63;;
64367;SDS011;50692;53.314;-6.300;2023-04-06T14:27:47;3.08;;;0.77;;
64367;SDS011;50692;53.314;-6.300;2023-04-06T14:30:33;1.88;;;0.60;;
64367;SDS011;50692;53.314;-6.300;2023-04-06T14:33:19;1.92;;;0.50;;
64367;SDS011;50692;53.314;-6.300;2023-04-06T14:36:05;0.70;;;0.40;;
64367;SDS011;50692;53.314;-6.300;2023-04-06T14:38:52;2.33;;;0.73;;
64367;SDS011;50692;53.314;-6.300;2023-04-06T14:41:38;3.03;;;0.60;;
64367;SDS011;50692;53.314;-6.300;2023-04-06T14:44:23;2.17;;;0.90;;
64367;SDS011;50692;53.314;-6.300;2023-04-06T14:47:09;1.63;;;0.60;;
64367;SDS011;50692;53.314;-6.300;2023-04-06T14:49:55;0.70;;;0.47;;
64367;SDS011;50692;53.314;-6.300;2023-04-06T14:52:42;2.33;;;0.73;;
64367;SDS011;50692;53.314;-6.300;2023-04-06T14:55:28;1.73;;;0.60;;
64367;SDS011;50692;53.314;-6.300;2023-04-06T14:58:14;1.88;;;0.65;;
64367;SDS011;50692;53.314;-6.300;2023-04-06T15:01:00;0.73;;;0.43;;
64367;SDS011;50692;53.314;-6.300;2023-04-06T15:03:47;2.78;;;1.05;;
64367;SDS011;50692;53.314;-6.300;2023-04-06T15:06:33;3.22;;;1.23;;
64367;SDS011;50692;53.314;-6.300;2023-04-06T15:09:18;0.90;;;0.55;;
64367;SDS011;50692;53.314;-6.300;2023-04-06T15:12:04;1.00;;;0.60;;
64367;SDS011;50692;53.314;-6.300;2023-04-06T15:14:50;2.45;;;0.80;;
64367;SDS011;50692;53.314;-6.300;2023-04-06T15:17:36;2.80;;;0.70;;
64367;SDS011;50692;53.314;-6.300;2023-04-06T15:20:22;2.10;;;0.70;;
64367;SDS011;50692;53.314;-6.300;2023-04-06T15:23:08;0.88;;;0.60;;
64367;SDS011;50692;53.314;-6.300;2023-04-06T15:25:54;2.17;;;0.60;;
64367;SDS011;50692;53.314;-6.300;2023-04-06T15:28:40;1.35;;;0.65;;
64367;SDS011;50692;53.314;-6.300;2023-04-06T15:31:26;2.22;;;0.60;;
64367;SDS011;50692;53.314;-6.300;2023-04-06T15:34:12;5.50;;;3.28;;
64367;SDS011;50692;53.314;-6.300;2023-04-06T15:37:00;7.57;;;6.97;;
64367;SDS011;50692;53.314;-6.300;2023-04-06T15:42:32;2.58;;;1.90;;
64367;SDS011;50692;53.314;-6.300;2023-04-06T15:45:18;2.15;;;1.13;;
64367;SDS011;50692;53.314;-6.300;2023-04-06T15:48:04;2.03;;;1.15;;
64367;SDS011;50692;53.314;-6.300;2023-04-06T15:50:50;3.60;;;3.30;;
64367;SDS011;50692;53.314;-6.300;2023-04-06T15:53:37;1.52;;;1.10;;
64367;SDS011;50692;53.314;-6.300;2023-04-06T15:56:24;3.65;;;2.10;;
64367;SDS011;50692;53.314;-6.300;2023-04-06T15:59:11;3.40;;;3.05;;
64367;SDS011;50692;53.314;-6.300;2023-04-06T16:01:57;1.92;;;1.23;;
64367;SDS011;50692;53.314;-6.300;2023-04-06T16:04:44;2.80;;;2.45;;
64367;SDS011;50692;53.314;-6.300;2023-04-06T16:07:30;1.40;;;0.60;;
64367;SDS011;50692;53.314;-6.300;2023-04-06T16:10:16;1.40;;;1.30;;
64367;SDS011;50692;53.314;-6.300;2023-04-06T16:13:02;1.30;;;0.63;;
64367;SDS011;50692;53.314;-6.300;2023-04-06T16:15:48;1.08;;;0.70;;
64367;SDS011;50692;53.314;-6.300;2023-04-06T16:18:36;0.85;;;0.75;;
64367;SDS011;50692;53.314;-6.300;2023-04-06T16:21:22;1.80;;;0.77;;
64367;SDS011;50692;53.314;-6.300;2023-04-06T16:24:07;0.80;;;0.55;;
64367;SDS011;50692;53.314;-6.300;2023-04-06T16:26:53;0.70;;;0.40;;
64367;SDS011;50692;53.314;-6.300;2023-04-06T16:29:40;1.00;;;0.60;;
64367;SDS011;50692;53.314;-6.300;2023-04-06T16:32:26;0.32;;;0.32;;
64367;SDS011;50692;53.314;-6.300;2023-04-06T16:35:12;0.85;;;0.43;;
64367;SDS011;50692;53.314;-6.300;2023-04-06T16:37:58;1.20;;;0.68;;